TRA44I EHRD-LGIR
Flight info
| Callsign | TRA44I |
|---|---|
| Flight time | N/A |
| Altitude | 37000 |
| Route | LUNIX2A/06 LUNIX Z739 MISGO DCT DOJOH DCT DODEN DCT NEGIX DCT DINKU M867 XERUM DCT BAVAX DCT RADIZ DCT NEMEK DCT ELTIB DCT GLOMY DCT INLOT DCT PINDO DCT KEA UL607 GIVIS T514 XAVIS |
| Aircraft | B738/M-SDE2E3FGHIRWXY/LB1 |
Departure
| Time | N/A |
|---|---|
| Airport | Rotterdam The Hague Airport (EHRD) |
Arrival
| Time | 2026-05-05 18:38 |
|---|---|
| Airport | Heraklion International Nikos Kazantzakis Airport (LGIR) |
| Time | Latitude | Longitude | Altitude | Speed | Heading |
|---|---|---|---|---|---|
| 2026-05-05 18:03 | 38.36715 | 23.40031 | 36991 ft | 468 kts | 137° |
| 2026-05-05 18:04 | 38.31964 | 23.45871 | 37054 ft | 474 kts | 136° |
| 2026-05-05 18:04 | 38.27111 | 23.51653 | 37072 ft | 481 kts | 138° |
| 2026-05-05 18:05 | 38.22097 | 23.57308 | 37068 ft | 488 kts | 139° |
| 2026-05-05 18:05 | 38.16918 | 23.63021 | 37071 ft | 495 kts | 140° |
| 2026-05-05 18:05 | 38.14305 | 23.65880 | 37194 ft | 495 kts | 140° |
| 2026-05-05 18:06 | 38.11665 | 23.68778 | 36971 ft | 502 kts | 139° |
| 2026-05-05 18:06 | 38.09909 | 23.70712 | 36718 ft | 502 kts | 139° |
| 2026-05-05 18:06 | 38.06401 | 23.74580 | 35830 ft | 505 kts | 139° |
| 2026-05-05 18:06 | 38.03730 | 23.77503 | 35380 ft | 504 kts | 141° |
| 2026-05-05 18:07 | 38.00872 | 23.80096 | 35290 ft | 507 kts | 148° |
| 2026-05-05 18:07 | 37.94805 | 23.84832 | 35100 ft | 521 kts | 152° |
| 2026-05-05 18:08 | 37.88332 | 23.89092 | 35078 ft | 524 kts | 155° |
| 2026-05-05 18:08 | 37.81809 | 23.93129 | 35070 ft | 519 kts | 155° |
| 2026-05-05 18:09 | 37.75341 | 23.97168 | 35063 ft | 516 kts | 155° |
| 2026-05-05 18:09 | 37.68945 | 24.01221 | 35071 ft | 513 kts | 154° |
| 2026-05-05 18:10 | 37.62566 | 24.05279 | 35076 ft | 512 kts | 154° |
| 2026-05-05 18:10 | 37.56151 | 24.09353 | 35082 ft | 519 kts | 154° |
| 2026-05-05 18:11 | 37.49656 | 24.13465 | 35067 ft | 522 kts | 154° |
| 2026-05-05 18:11 | 37.43187 | 24.17552 | 35066 ft | 523 kts | 154° |
| 2026-05-05 18:12 | 37.36670 | 24.21660 | 35061 ft | 522 kts | 154° |
| 2026-05-05 18:12 | 37.30157 | 24.25758 | 35061 ft | 521 kts | 154° |
| 2026-05-05 18:12 | 37.26944 | 24.27777 | 34880 ft | 523 kts | 154° |
| 2026-05-05 18:13 | 37.23688 | 24.29821 | 34620 ft | 521 kts | 154° |
| 2026-05-05 18:13 | 37.20457 | 24.31848 | 34357 ft | 517 kts | 154° |
| 2026-05-05 18:13 | 37.17237 | 24.33865 | 33657 ft | 518 kts | 154° |
| 2026-05-05 18:13 | 37.14015 | 24.35882 | 33035 ft | 517 kts | 154° |
| 2026-05-05 18:14 | 37.10785 | 24.37902 | 32340 ft | 518 kts | 154° |
| 2026-05-05 18:14 | 37.07551 | 24.39922 | 31656 ft | 518 kts | 154° |
| 2026-05-05 18:14 | 37.04309 | 24.41945 | 30959 ft | 519 kts | 154° |
| 2026-05-05 18:14 | 37.01059 | 24.43972 | 30242 ft | 521 kts | 154° |
| 2026-05-05 18:15 | 36.97842 | 24.45975 | 29385 ft | 523 kts | 154° |
| 2026-05-05 18:15 | 36.94569 | 24.48012 | 28662 ft | 521 kts | 154° |
| 2026-05-05 18:15 | 36.91335 | 24.50023 | 28131 ft | 515 kts | 154° |
| 2026-05-05 18:15 | 36.88132 | 24.52013 | 27563 ft | 511 kts | 154° |
| 2026-05-05 18:16 | 36.84958 | 24.53983 | 27004 ft | 506 kts | 154° |
| 2026-05-05 18:16 | 36.81819 | 24.55929 | 26460 ft | 502 kts | 154° |
| 2026-05-05 18:16 | 36.78698 | 24.57862 | 25919 ft | 497 kts | 154° |
| 2026-05-05 18:16 | 36.75612 | 24.59772 | 25387 ft | 493 kts | 154° |
| 2026-05-05 18:17 | 36.72547 | 24.61667 | 24853 ft | 489 kts | 155° |
| 2026-05-05 18:17 | 36.69542 | 24.63523 | 24309 ft | 486 kts | 155° |
| 2026-05-05 18:17 | 36.66520 | 24.65388 | 23770 ft | 483 kts | 155° |
| 2026-05-05 18:17 | 36.63510 | 24.67244 | 23159 ft | 480 kts | 155° |
| 2026-05-05 18:18 | 36.60536 | 24.69076 | 22582 ft | 475 kts | 154° |
| 2026-05-05 18:18 | 36.57579 | 24.70897 | 22033 ft | 470 kts | 154° |
| 2026-05-05 18:18 | 36.54646 | 24.72700 | 21494 ft | 465 kts | 154° |
| 2026-05-05 18:18 | 36.51760 | 24.74474 | 20970 ft | 461 kts | 154° |
| 2026-05-05 18:19 | 36.48896 | 24.76232 | 20456 ft | 456 kts | 154° |
| 2026-05-05 18:19 | 36.46063 | 24.77970 | 19947 ft | 452 kts | 154° |
| 2026-05-05 18:19 | 36.43253 | 24.79693 | 19437 ft | 448 kts | 154° |
| 2026-05-05 18:19 | 36.40459 | 24.81404 | 18928 ft | 444 kts | 154° |
| 2026-05-05 18:20 | 36.37723 | 24.83078 | 18415 ft | 441 kts | 154° |
| 2026-05-05 18:20 | 36.35861 | 24.84217 | 18020 ft | 439 kts | 154° |
| 2026-05-05 18:20 | 36.32243 | 24.86427 | 17294 ft | 434 kts | 154° |
| 2026-05-05 18:20 | 36.30455 | 24.87519 | 16948 ft | 431 kts | 154° |
| 2026-05-05 18:21 | 36.27776 | 24.89154 | 16455 ft | 426 kts | 154° |
| 2026-05-05 18:21 | 36.25120 | 24.90773 | 15961 ft | 421 kts | 154° |
| 2026-05-05 18:21 | 36.22499 | 24.92370 | 15480 ft | 417 kts | 153° |
| 2026-05-05 18:21 | 36.19904 | 24.93949 | 14999 ft | 413 kts | 153° |
| 2026-05-05 18:22 | 36.17331 | 24.95515 | 14522 ft | 409 kts | 153° |
| 2026-05-05 18:22 | 36.14791 | 24.97059 | 14056 ft | 405 kts | 153° |
| 2026-05-05 18:22 | 36.12264 | 24.98594 | 13551 ft | 401 kts | 153° |
| 2026-05-05 18:22 | 36.09764 | 25.00112 | 13042 ft | 398 kts | 153° |
| 2026-05-05 18:23 | 36.07298 | 25.01608 | 12589 ft | 393 kts | 153° |
| 2026-05-05 18:23 | 36.04852 | 25.03091 | 12115 ft | 389 kts | 153° |
| 2026-05-05 18:23 | 36.02433 | 25.04557 | 11655 ft | 385 kts | 153° |
| 2026-05-05 18:23 | 36.00064 | 25.05991 | 11211 ft | 382 kts | 153° |
| 2026-05-05 18:24 | 35.97697 | 25.07423 | 10988 ft | 372 kts | 153° |
| 2026-05-05 18:24 | 35.95403 | 25.08809 | 10833 ft | 361 kts | 153° |
| 2026-05-05 18:24 | 35.93179 | 25.10152 | 10686 ft | 350 kts | 153° |
| 2026-05-05 18:24 | 35.91020 | 25.11456 | 10541 ft | 340 kts | 153° |
| 2026-05-05 18:25 | 35.88914 | 25.12726 | 10406 ft | 331 kts | 153° |
| 2026-05-05 18:25 | 35.87553 | 25.13547 | 10315 ft | 325 kts | 152° |
| 2026-05-05 18:25 | 35.84904 | 25.15144 | 10139 ft | 314 kts | 152° |
| 2026-05-05 18:25 | 35.82958 | 25.16317 | 9946 ft | 309 kts | 152° |
| 2026-05-05 18:26 | 35.81024 | 25.17482 | 9639 ft | 308 kts | 152° |
| 2026-05-05 18:26 | 35.79100 | 25.18641 | 9352 ft | 306 kts | 152° |
| 2026-05-05 18:26 | 35.77188 | 25.19791 | 9080 ft | 304 kts | 152° |
| 2026-05-05 18:26 | 35.75288 | 25.20934 | 8794 ft | 303 kts | 152° |
| 2026-05-05 18:27 | 35.73394 | 25.22072 | 8516 ft | 301 kts | 152° |
| 2026-05-05 18:27 | 35.71512 | 25.23203 | 8238 ft | 300 kts | 152° |
| 2026-05-05 18:27 | 35.69635 | 25.24329 | 7964 ft | 299 kts | 152° |
| 2026-05-05 18:27 | 35.67769 | 25.25449 | 7696 ft | 297 kts | 152° |
| 2026-05-05 18:28 | 35.64121 | 25.27636 | 7027 ft | 291 kts | 152° |
| 2026-05-05 18:28 | 35.62294 | 25.28731 | 6555 ft | 292 kts | 152° |
| 2026-05-05 18:28 | 35.60470 | 25.29824 | 6140 ft | 290 kts | 152° |
| 2026-05-05 18:29 | 35.58660 | 25.30907 | 5742 ft | 288 kts | 153° |
| 2026-05-05 18:29 | 35.56862 | 25.31983 | 5344 ft | 286 kts | 153° |
| 2026-05-05 18:29 | 35.55077 | 25.33051 | 4957 ft | 284 kts | 153° |
| 2026-05-05 18:29 | 35.53308 | 25.34108 | 4574 ft | 281 kts | 154° |
| 2026-05-05 18:30 | 35.51554 | 25.35156 | 4168 ft | 279 kts | 154° |
| 2026-05-05 18:30 | 35.49809 | 25.36197 | 3779 ft | 278 kts | 155° |
| 2026-05-05 18:30 | 35.48097 | 25.37224 | 3387 ft | 277 kts | 155° |
| 2026-05-05 18:30 | 35.46375 | 25.38267 | 3225 ft | 271 kts | 155° |
| 2026-05-05 18:31 | 35.46349 | 25.38283 | 3220 ft | 271 kts | 155° |
| 2026-05-05 18:31 | 35.44793 | 25.39235 | 3177 ft | 258 kts | 155° |
| 2026-05-05 18:31 | 35.43228 | 25.40201 | 3044 ft | 245 kts | 155° |
| 2026-05-05 18:31 | 35.41751 | 25.41118 | 3017 ft | 233 kts | 155° |
| 2026-05-05 18:32 | 35.40312 | 25.42013 | 3020 ft | 230 kts | 155° |
| 2026-05-05 18:32 | 35.38903 | 25.42891 | 2705 ft | 224 kts | 155° |
| 2026-05-05 18:32 | 35.37449 | 25.43499 | 2340 ft | 215 kts | 182° |
| 2026-05-05 18:32 | 35.36110 | 25.43081 | 2326 ft | 190 kts | 212° |
| 2026-05-05 18:33 | 35.35145 | 25.42083 | 2312 ft | 180 kts | 238° |
| 2026-05-05 18:33 | 35.34434 | 25.40810 | 2323 ft | 182 kts | 239° |
| 2026-05-05 18:33 | 35.33834 | 25.39466 | 2309 ft | 178 kts | 252° |
| 2026-05-05 18:33 | 35.33396 | 25.38048 | 2335 ft | 178 kts | 252° |
| 2026-05-05 18:34 | 35.32978 | 25.36654 | 2311 ft | 167 kts | 259° |
| 2026-05-05 18:34 | 35.32926 | 25.35320 | 2306 ft | 149 kts | 272° |
| 2026-05-05 18:34 | 35.32937 | 25.34070 | 2317 ft | 146 kts | 274° |
| 2026-05-05 18:34 | 35.32987 | 25.32842 | 2318 ft | 145 kts | 275° |
| 2026-05-05 18:35 | 35.33054 | 25.31627 | 2324 ft | 145 kts | 276° |
| 2026-05-05 18:35 | 35.33133 | 25.30381 | 2182 ft | 147 kts | 276° |
| 2026-05-05 18:35 | 35.33215 | 25.29131 | 1972 ft | 146 kts | 276° |
| 2026-05-05 18:35 | 35.33299 | 25.27899 | 1750 ft | 144 kts | 276° |
| 2026-05-05 18:36 | 35.33382 | 25.26673 | 1545 ft | 145 kts | 275° |
| 2026-05-05 18:36 | 35.33467 | 25.25430 | 1319 ft | 146 kts | 275° |
| 2026-05-05 18:36 | 35.33552 | 25.24189 | 1098 ft | 145 kts | 275° |
| 2026-05-05 18:36 | 35.33637 | 25.22967 | 875 ft | 144 kts | 274° |
| 2026-05-05 18:37 | 35.33721 | 25.21735 | 660 ft | 147 kts | 274° |
| 2026-05-05 18:37 | 35.33813 | 25.20489 | 429 ft | 145 kts | 273° |
| 2026-05-05 18:37 | 35.33887 | 25.19274 | 181 ft | 145 kts | 272° |
| 2026-05-05 18:37 | 35.33972 | 25.18086 | 92 ft | 126 kts | 274° |
| 2026-05-05 18:38 | 35.34026 | 25.17274 | 86 ft | 64 kts | 275° |
| 2026-05-05 18:38 | 35.34048 | 25.16951 | 86 ft | 24 kts | 275° |
| 2026-05-05 18:38 | 35.34045 | 25.16859 | 87 ft | 5 kts | 221° |
| 2026-05-05 18:38 | 35.34014 | 25.16873 | 85 ft | 6 kts | 133° |
| 2026-05-05 18:39 | 35.33986 | 25.16921 | 87 ft | 8 kts | 123° |
| 2026-05-05 18:39 | 35.33954 | 25.16987 | 85 ft | 9 kts | 114° |
| 2026-05-05 18:39 | 35.33942 | 25.17062 | 86 ft | 9 kts | 94° |
| 2026-05-05 18:39 | 35.33936 | 25.17154 | 86 ft | 13 kts | 95° |
| 2026-05-05 18:40 | 35.33927 | 25.17285 | 86 ft | 17 kts | 95° |
| 2026-05-05 18:40 | 35.33917 | 25.17427 | 86 ft | 16 kts | 95° |
| 2026-05-05 18:40 | 35.33875 | 25.17502 | 88 ft | 12 kts | 188° |
| 2026-05-05 18:40 | 35.33808 | 25.17493 | 85 ft | 6 kts | 193° |
| 2026-05-05 18:41 | 35.33803 | 25.17448 | 85 ft | 6 kts | 282° |
| 2026-05-05 18:41 | 35.33805 | 25.17418 | 85 ft | 1 kts | 274° |
| 2026-05-05 18:41 | 35.33805 | 25.17415 | 85 ft | 0 kts | 274° |